Time;durP1;ratioP1;P1;durP2;ratioP2;P2;SDS_P1;SDS_P2;PMS_P1;PMS_P2;Temp;Humidity;BMP_temperature;BMP_pressure;BME280_temperature;BME280_humidity;BME280_pressure;Samples;Min_cycle;Max_cycle;Signal;HPM_P1;HPM_P2
2022/04/24 00:00:09;;;;;;;18.30;9.60;;;12.40;99.90;;;;;;5054589;28;20032;-66
2022/04/24 00:02:35;;;;;;;18.38;9.57;;;12.30;99.90;;;;;;5054763;28;20075;-64
2022/04/24 00:05:01;;;;;;;18.17;9.55;;;12.40;99.90;;;;;;5054241;28;20017;-63
2022/04/24 00:07:29;;;;;;;17.02;9.10;;;12.40;99.90;;;;;;5053694;28;20044;-64
2022/04/24 00:09:55;;;;;;;18.58;10.02;;;12.30;99.90;;;;;;5048143;28;20040;-65
2022/04/24 00:12:20;;;;;;;16.58;9.57;;;12.30;99.90;;;;;;5046672;28;20021;-63
2022/04/24 00:14:47;;;;;;;17.70;9.82;;;12.30;99.90;;;;;;5054116;28;20029;-64
2022/04/24 00:17:15;;;;;;;19.73;10.57;;;12.30;99.90;;;;;;5035446;28;20022;-64
2022/04/24 00:19:41;;;;;;;18.70;10.23;;;12.30;99.90;;;;;;5033913;28;20434;-66
2022/04/24 00:22:06;;;;;;;18.23;10.45;;;12.20;99.90;;;;;;5034173;28;20091;-65
2022/04/24 00:24:32;;;;;;;17.45;10.15;;;12.20;99.90;;;;;;5033923;28;20454;-64
2022/04/24 00:26:59;;;;;;;20.13;10.27;;;12.30;99.90;;;;;;5034373;28;20047;-65
2022/04/24 00:29:25;;;;;;;17.90;9.38;;;12.20;99.90;;;;;;5052812;28;20461;-64
2022/04/24 00:31:51;;;;;;;19.60;10.57;;;12.20;99.90;;;;;;5054023;28;20021;-66
2022/04/24 00:34:16;;;;;;;21.63;11.32;;;12.20;99.90;;;;;;5052577;28;20071;-64
2022/04/24 00:36:43;;;;;;;18.35;10.98;;;12.20;99.90;;;;;;5054085;28;20517;-64
2022/04/24 00:39:09;;;;;;;18.20;9.90;;;12.20;99.90;;;;;;5054030;28;20471;-65
2022/04/24 00:41:42;;;;;;;18.33;10.23;;;12.20;99.90;;;;;;5053428;28;20033;-67
2022/04/24 00:44:08;;;;;;;18.88;10.63;;;12.20;99.90;;;;;;5052519;28;20037;-65
2022/04/24 00:46:50;;;;;;;20.63;10.68;;;12.10;99.90;;;;;;5046160;28;20027;-67
2022/04/24 00:49:16;;;;;;;19.92;9.77;;;12.10;99.90;;;;;;5034173;28;20041;-62
2022/04/24 00:51:43;;;;;;;17.90;9.77;;;12.00;99.90;;;;;;5049305;28;20132;-66
2022/04/24 00:54:09;;;;;;;20.42;10.55;;;12.10;99.90;;;;;;5033745;28;20021;-64
2022/04/24 00:56:37;;;;;;;19.73;10.15;;;12.00;99.90;;;;;;5033783;28;20059;-65
2022/04/24 00:59:05;;;;;;;19.38;10.57;;;12.00;99.90;;;;;;5033780;28;20075;-64
2022/04/24 01:01:34;;;;;;;21.50;10.73;;;12.00;99.90;;;;;;5063815;28;20123;-66
2022/04/24 01:04:04;;;;;;;18.73;10.20;;;11.90;99.90;;;;;;5047426;28;20017;-66
2022/04/24 01:06:36;;;;;;;19.70;10.85;;;11.90;99.90;;;;;;5033491;28;20472;-66
2022/04/24 01:09:19;;;;;;;;;;;11.90;99.90;;;;;;5033850;28;20108;-67
2022/04/24 01:11:49;;;;;;;16.67;9.55;;;11.90;99.90;;;;;;5033519;28;19901;-65
2022/04/24 01:14:16;;;;;;;17.15;10.10;;;11.80;99.90;;;;;;5033468;28;20125;-66
2022/04/24 01:16:42;;;;;;;20.17;11.07;;;11.80;99.90;;;;;;5047762;28;20360;-63
2022/04/24 01:19:08;;;;;;;18.58;9.73;;;11.80;99.90;;;;;;5034275;28;20460;-66
2022/04/24 01:21:35;;;;;;;19.80;10.15;;;11.80;99.90;;;;;;5032770;28;20042;-65
2022/04/24 01:24:04;;;;;;;18.30;10.27;;;11.80;99.90;;;;;;5033090;28;20032;-64
2022/04/24 01:26:30;;;;;;;21.02;9.75;;;11.80;99.90;;;;;;5036236;28;20030;-66
2022/04/24 01:28:55;;;;;;;18.05;10.57;;;11.70;99.90;;;;;;5045893;28;20028;-64
2022/04/24 01:31:21;;;;;;;18.92;10.18;;;11.70;99.90;;;;;;5053362;28;20342;-67
2022/04/24 01:33:46;;;;;;;18.77;10.30;;;11.70;99.90;;;;;;5033496;28;20029;-64
2022/04/24 01:36:13;;;;;;;22.67;9.32;;;11.60;99.90;;;;;;5033558;28;20021;-64
2022/04/24 01:38:40;;;;;;;19.10;10.65;;;11.70;99.90;;;;;;5032922;28;20021;-65
2022/04/24 01:41:05;;;;;;;17.27;9.30;;;11.60;99.90;;;;;;5032613;28;20025;-66
2022/04/24 01:43:31;;;;;;;22.10;10.25;;;11.60;99.90;;;;;;5032918;28;20024;-63
2022/04/24 01:45:56;;;;;;;20.42;10.82;;;11.50;99.90;;;;;;5032777;28;20029;-62
2022/04/24 01:48:22;;;;;;;19.33;10.63;;;11.50;99.90;;;;;;5033068;28;20028;-65
2022/04/24 01:50:51;;;;;;;21.83;9.63;;;11.50;99.90;;;;;;5032943;28;20026;-65
2022/04/24 01:53:16;;;;;;;17.42;8.73;;;11.40;99.90;;;;;;5033297;28;20073;-63
2022/04/24 01:55:42;;;;;;;19.20;9.65;;;11.40;99.90;;;;;;5032548;28;20465;-67
2022/04/24 01:58:07;;;;;;;17.55;9.60;;;11.40;99.90;;;;;;5036070;28;20013;-66
2022/04/24 02:00:33;;;;;;;17.63;8.93;;;11.40;99.90;;;;;;5046833;28;20063;-65
2022/04/24 02:02:59;;;;;;;15.80;8.30;;;11.40;99.90;;;;;;5050806;28;20021;-63
2022/04/24 02:05:24;;;;;;;20.38;9.85;;;11.40;99.90;;;;;;5032872;28;20136;-65
2022/04/24 02:07:50;;;;;;;17.67;9.05;;;11.40;99.90;;;;;;5042189;28;20472;-65
2022/04/24 02:10:15;;;;;;;18.73;9.52;;;11.40;99.90;;;;;;5057810;28;20030;-62
2022/04/24 02:12:41;;;;;;;19.05;9.07;;;11.40;99.90;;;;;;5033108;28;20037;-66
2022/04/24 02:15:07;;;;;;;18.58;10.25;;;11.30;99.90;;;;;;5034232;28;20026;-66
2022/04/24 02:17:34;;;;;;;21.92;9.77;;;11.30;99.90;;;;;;5039699;28;20076;-65
2022/04/24 02:20:00;;;;;;;21.48;9.38;;;11.30;99.90;;;;;;5055355;28;20017;-65
2022/04/24 02:22:34;;;;;;;17.83;8.32;;;11.30;99.90;;;;;;5048733;28;20037;-65
2022/04/24 02:25:00;;;;;;;17.10;8.88;;;11.30;99.90;;;;;;5034934;28;20453;-63
2022/04/24 02:27:26;;;;;;;17.00;8.63;;;11.20;99.90;;;;;;5036749;28;20041;-62
2022/04/24 02:29:52;;;;;;;15.52;8.32;;;11.20;99.90;;;;;;5036174;28;20037;-62
2022/04/24 02:32:17;;;;;;;16.08;8.32;;;11.20;99.90;;;;;;5036014;28;20425;-63
2022/04/24 02:34:43;;;;;;;15.98;8.52;;;11.20;99.90;;;;;;5051354;28;20060;-63
2022/04/24 02:37:08;;;;;;;15.43;8.38;;;11.20;99.90;;;;;;5036301;28;20017;-63
2022/04/24 02:39:35;;;;;;;16.35;8.20;;;11.20;99.90;;;;;;5048551;28;20544;-62
2022/04/24 02:42:01;;;;;;;15.10;7.72;;;11.20;99.90;;;;;;5054395;28;20384;-63
2022/04/24 02:44:27;;;;;;;14.00;7.32;;;11.10;99.90;;;;;;5056286;28;20037;-62
2022/04/24 02:46:52;;;;;;;17.92;8.93;;;11.10;99.90;;;;;;5055769;28;20104;-62
2022/04/24 02:49:18;;;;;;;14.63;7.68;;;11.10;99.90;;;;;;5056100;28;20430;-62
2022/04/24 02:51:44;;;;;;;16.90;8.50;;;11.10;99.90;;;;;;5055290;28;20472;-63
2022/04/24 02:54:10;;;;;;;16.52;7.97;;;11.10;99.90;;;;;;5055801;28;20021;-63
2022/04/24 02:56:35;;;;;;;16.30;8.57;;;11.00;99.90;;;;;;5054345;28;20021;-63
2022/04/24 02:59:02;;;;;;;14.82;7.68;;;11.00;99.90;;;;;;5055681;28;20028;-62
2022/04/24 03:01:28;;;;;;;17.35;8.57;;;11.00;99.90;;;;;;5055694;28;20528;-63
2022/04/24 03:03:54;;;;;;;16.38;9.23;;;11.00;99.90;;;;;;5055777;28;20131;-63
2022/04/24 03:06:20;;;;;;;14.63;7.63;;;11.00;99.90;;;;;;5055122;28;20096;-63
2022/04/24 03:08:47;;;;;;;13.93;7.03;;;10.90;99.90;;;;;;5055303;28;20056;-62
2022/04/24 03:11:14;;;;;;;13.63;7.15;;;10.90;99.90;;;;;;5055744;28;20021;-63
2022/04/24 03:13:40;;;;;;;14.30;7.93;;;10.90;99.90;;;;;;5055165;28;20013;-62
2022/04/24 03:16:06;;;;;;;13.98;7.70;;;10.90;99.90;;;;;;5055163;28;20364;-63
2022/04/24 03:18:31;;;;;;;17.85;7.90;;;10.80;99.90;;;;;;5054901;28;20021;-62
2022/04/24 03:20:57;;;;;;;18.83;8.73;;;10.80;99.90;;;;;;5053303;28;20033;-63
2022/04/24 03:23:22;;;;;;;14.20;7.20;;;10.80;99.90;;;;;;5054671;28;20430;-63
2022/04/24 03:25:49;;;;;;;18.23;8.40;;;10.80;99.90;;;;;;5054223;28;20024;-63
2022/04/24 03:28:15;;;;;;;12.27;7.28;;;10.80;99.90;;;;;;5053191;28;20147;-63
2022/04/24 03:30:40;;;;;;;18.15;8.95;;;10.70;99.90;;;;;;5054998;28;20037;-64
2022/04/24 03:33:06;;;;;;;16.90;7.55;;;10.70;99.90;;;;;;5054614;28;20044;-63
2022/04/24 03:35:31;;;;;;;15.35;8.25;;;10.70;99.90;;;;;;5054550;28;20052;-63
2022/04/24 03:37:57;;;;;;;16.15;8.18;;;10.70;99.90;;;;;;5054486;28;20059;-62
2022/04/24 03:40:23;;;;;;;13.73;7.03;;;10.70;99.90;;;;;;5054359;28;20032;-63
2022/04/24 03:42:48;;;;;;;18.42;9.32;;;10.60;99.90;;;;;;5055141;28;20472;-64
2022/04/24 03:45:14;;;;;;;16.40;7.70;;;10.60;99.90;;;;;;5054631;28;20467;-63
2022/04/24 03:47:39;;;;;;;17.45;8.13;;;10.50;99.90;;;;;;5054301;28;20025;-62
2022/04/24 03:50:06;;;;;;;14.23;7.45;;;10.50;99.90;;;;;;5054385;28;20021;-63
2022/04/24 03:52:32;;;;;;;13.82;7.75;;;10.50;99.90;;;;;;5053274;28;20025;-64
2022/04/24 03:54:58;;;;;;;16.27;7.47;;;10.40;99.90;;;;;;5054463;28;20072;-62
2022/04/24 03:57:24;;;;;;;13.70;7.30;;;10.40;99.90;;;;;;5053270;28;20108;-63
2022/04/24 03:59:50;;;;;;;16.48;7.88;;;10.40;99.90;;;;;;5054341;28;20104;-64
2022/04/24 04:02:16;;;;;;;14.18;7.22;;;10.30;99.90;;;;;;5054062;28;20124;-63
2022/04/24 04:04:41;;;;;;;17.90;7.93;;;10.30;99.90;;;;;;5054175;28;20364;-64
2022/04/24 04:07:07;;;;;;;15.77;7.28;;;10.30;99.90;;;;;;5054134;28;20033;-63
2022/04/24 04:09:33;;;;;;;19.40;8.52;;;10.30;99.90;;;;;;5054562;28;20067;-64
2022/04/24 04:11:58;;;;;;;16.23;8.55;;;10.20;99.90;;;;;;5054087;28;20030;-64
2022/04/24 04:14:24;;;;;;;17.13;8.68;;;10.20;99.90;;;;;;5054324;28;20461;-63
2022/04/24 04:16:50;;;;;;;15.38;7.80;;;10.20;99.90;;;;;;5054138;28;20044;-63
2022/04/24 04:19:16;;;;;;;16.88;7.43;;;10.20;99.90;;;;;;5053624;28;20031;-63
2022/04/24 04:21:43;;;;;;;14.70;7.60;;;10.10;99.90;;;;;;5053870;28;20036;-63
2022/04/24 04:24:09;;;;;;;14.90;7.75;;;10.10;99.90;;;;;;5053719;28;20108;-63
2022/04/24 04:26:36;;;;;;;15.50;7.70;;;10.20;99.90;;;;;;5053706;28;20052;-63
2022/04/24 04:29:02;;;;;;;13.77;7.40;;;10.20;99.90;;;;;;5053734;28;20023;-63
2022/04/24 04:31:28;;;;;;;15.82;7.10;;;10.10;99.90;;;;;;5053553;28;20399;-63
2022/04/24 04:33:53;;;;;;;16.52;7.72;;;10.10;99.90;;;;;;5053554;28;20016;-64
2022/04/24 04:36:19;;;;;;;13.98;6.80;;;10.20;99.90;;;;;;5053381;28;20444;-62
2022/04/24 04:38:45;;;;;;;11.85;7.25;;;10.20;99.90;;;;;;5050938;28;20017;-62
2022/04/24 04:41:11;;;;;;;14.25;7.00;;;10.20;99.90;;;;;;5033707;28;20037;-63
2022/04/24 04:43:37;;;;;;;15.15;6.72;;;10.20;99.90;;;;;;5032448;28;20458;-63
2022/04/24 04:46:02;;;;;;;14.25;6.50;;;10.30;99.90;;;;;;5032011;28;20021;-63
2022/04/24 04:48:28;;;;;;;13.02;7.07;;;10.30;99.90;;;;;;5033628;28;20079;-63
2022/04/24 04:50:54;;;;;;;14.23;7.28;;;10.30;99.90;;;;;;5033404;28;20022;-63
2022/04/24 04:53:20;;;;;;;13.50;7.32;;;10.30;99.90;;;;;;5034139;28;20030;-63
2022/04/24 04:55:46;;;;;;;13.88;7.25;;;10.30;99.90;;;;;;5032358;28;20361;-63
2022/04/24 04:58:12;;;;;;;13.63;7.32;;;10.30;99.90;;;;;;5033007;28;20018;-63
2022/04/24 05:00:38;;;;;;;13.98;7.40;;;10.30;99.90;;;;;;5031676;28;20032;-63
2022/04/24 05:03:03;;;;;;;15.05;7.13;;;10.30;99.90;;;;;;5033187;28;20021;-62
2022/04/24 05:05:29;;;;;;;11.23;6.50;;;10.30;99.90;;;;;;5032136;28;20032;-62
2022/04/24 05:07:54;;;;;;;13.15;6.68;;;10.40;99.90;;;;;;5033663;28;20029;-63
2022/04/24 05:10:20;;;;;;;13.65;6.80;;;10.40;99.90;;;;;;5033491;28;20026;-62
2022/04/24 05:12:45;;;;;;;12.02;6.93;;;10.40;99.90;;;;;;5033185;28;20362;-62
2022/04/24 05:15:13;;;;;;;16.83;7.72;;;10.40;99.90;;;;;;5033180;28;20346;-64
2022/04/24 05:17:40;;;;;;;12.95;7.18;;;10.50;99.90;;;;;;5032959;28;20104;-63
2022/04/24 05:20:07;;;;;;;12.00;6.47;;;10.50;99.90;;;;;;5032128;28;20060;-63
2022/04/24 05:22:33;;;;;;;12.65;6.90;;;10.50;99.90;;;;;;5033252;28;20029;-63
2022/04/24 05:24:59;;;;;;;12.18;6.40;;;10.50;99.90;;;;;;5033364;28;20021;-63
2022/04/24 05:27:25;;;;;;;14.20;6.60;;;10.60;99.90;;;;;;5033419;28;20400;-62
2022/04/24 05:29:50;;;;;;;14.10;7.28;;;10.60;99.90;;;;;;5033321;28;20092;-62
2022/04/24 05:32:16;;;;;;;13.88;7.00;;;10.60;99.90;;;;;;5031339;28;20030;-62
2022/04/24 05:34:42;;;;;;;12.60;7.00;;;10.70;99.90;;;;;;5032704;28;20057;-63
2022/04/24 05:37:07;;;;;;;13.05;6.68;;;10.80;99.90;;;;;;5032803;28;20022;-62
2022/04/24 05:39:33;;;;;;;13.75;6.70;;;10.80;99.90;;;;;;5033330;28;20450;-63
2022/04/24 05:41:59;;;;;;;12.93;6.97;;;10.80;99.90;;;;;;5031950;28;20036;-64
2022/04/24 05:44:25;;;;;;;12.27;6.10;;;10.90;99.90;;;;;;5032687;28;20072;-63
2022/04/24 05:46:50;;;;;;;12.75;6.57;;;11.00;99.90;;;;;;5032714;28;20018;-62
2022/04/24 05:49:16;;;;;;;13.02;6.15;;;11.00;99.90;;;;;;5033064;28;20026;-63
2022/04/24 05:51:42;;;;;;;14.90;7.18;;;11.10;99.90;;;;;;5037192;28;20104;-62
2022/04/24 05:54:08;;;;;;;12.30;6.03;;;11.10;99.90;;;;;;5035660;28;20025;-63
2022/04/24 05:56:34;;;;;;;10.57;5.82;;;11.20;99.90;;;;;;5036899;28;20105;-62
2022/04/24 05:58:59;;;;;;;13.15;6.07;;;11.20;99.90;;;;;;5036749;28;20053;-63
2022/04/24 06:01:25;;;;;;;11.63;5.88;;;11.30;99.90;;;;;;5036466;28;20029;-63
2022/04/24 06:03:50;;;;;;;9.35;5.63;;;11.30;99.90;;;;;;5036673;28;20026;-63
2022/04/24 06:06:16;;;;;;;13.07;6.30;;;11.40;99.90;;;;;;5036681;28;20033;-63
2022/04/24 06:08:43;;;;;;;12.75;5.85;;;11.40;99.90;;;;;;5036766;28;20116;-63
2022/04/24 06:11:08;;;;;;;11.10;5.95;;;11.50;99.90;;;;;;5036625;28;20025;-64
2022/04/24 06:13:34;;;;;;;11.40;5.70;;;11.50;99.90;;;;;;5036718;28;20018;-63
2022/04/24 06:16:00;;;;;;;9.85;5.10;;;11.60;99.90;;;;;;5035978;28;20021;-62
2022/04/24 06:18:29;;;;;;;9.68;5.70;;;11.70;99.90;;;;;;5036702;28;20021;-63
2022/04/24 06:20:55;;;;;;;13.32;7.10;;;11.80;99.90;;;;;;5036693;28;20025;-62
2022/04/24 06:23:21;;;;;;;13.13;5.57;;;11.90;99.90;;;;;;5035112;28;20529;-63
2022/04/24 06:25:46;;;;;;;11.40;6.78;;;12.00;99.90;;;;;;5036247;28;20013;-62
2022/04/24 06:28:12;;;;;;;15.95;6.78;;;12.10;99.90;;;;;;5036155;28;20100;-62
2022/04/24 06:30:41;;;;;;;10.38;6.35;;;12.20;99.90;;;;;;5036081;28;20032;-63
2022/04/24 06:33:11;;;;;;;14.35;6.50;;;12.30;99.90;;;;;;5036471;28;20412;-62
2022/04/24 06:35:37;;;;;;;12.48;5.97;;;12.60;99.90;;;;;;5035965;28;20032;-63
2022/04/24 06:38:04;;;;;;;13.60;7.13;;;12.90;99.90;;;;;;5036137;28;20079;-62
2022/04/24 06:40:30;;;;;;;9.23;5.60;;;13.20;99.90;;;;;;5038956;28;20039;-63
2022/04/24 06:43:04;;;;;;;10.55;5.43;;;13.60;99.90;;;;;;5035907;28;20022;-63
2022/04/24 06:45:36;;;;;;;10.75;4.93;;;14.10;99.90;;;;;;5035924;28;20025;-63
2022/04/24 06:48:13;;;;;;;10.52;5.55;;;14.50;99.90;;;;;;5036275;28;20026;-63
2022/04/24 06:50:44;;;;;;;11.45;6.35;;;14.80;99.30;;;;;;5035861;28;20426;-63
2022/04/24 06:53:11;;;;;;;11.43;6.00;;;15.00;99.00;;;;;;5035931;28;20437;-63
2022/04/24 06:55:40;;;;;;;9.88;5.75;;;15.20;98.20;;;;;;5035363;28;20434;-63
2022/04/24 06:58:10;;;;;;;12.65;5.57;;;15.50;97.70;;;;;;5035712;28;20060;-62
2022/04/24 07:00:38;;;;;;;10.45;5.13;;;15.80;97.30;;;;;;5035407;28;20477;-63
2022/04/24 07:03:13;;;;;;;7.97;4.53;;;15.80;96.80;;;;;;5035217;28;20072;-63
2022/04/24 07:05:40;;;;;;;10.93;5.95;;;15.90;96.40;;;;;;5033978;28;20470;-63
2022/04/24 07:08:06;;;;;;;10.23;5.55;;;15.90;96.40;;;;;;5035186;28;20022;-63
2022/04/24 07:10:32;;;;;;;10.52;5.35;;;16.20;96.40;;;;;;5034229;28;20056;-64
2022/04/24 07:12:58;;;;;;;11.55;6.20;;;16.30;95.70;;;;;;5035717;28;20032;-64
2022/04/24 07:15:28;;;;;;;10.18;5.20;;;16.30;95.80;;;;;;5035397;28;20021;-63
2022/04/24 07:17:54;;;;;;;12.45;6.03;;;16.10;95.70;;;;;;5035496;28;20022;-64
2022/04/24 07:20:20;;;;;;;10.70;5.43;;;15.90;96.10;;;;;;5035058;28;20045;-63
2022/04/24 07:22:48;;;;;;;11.80;6.25;;;15.70;96.50;;;;;;5034981;28;20462;-64
2022/04/24 07:25:25;;;;;;;9.52;5.25;;;15.40;96.80;;;;;;5035422;28;20075;-63
2022/04/24 07:27:51;;;;;;;12.00;5.22;;;15.30;96.90;;;;;;5033654;28;20049;-64
2022/04/24 07:30:19;;;;;;;10.68;5.28;;;15.10;97.00;;;;;;5035214;28;20025;-64
2022/04/24 07:32:47;;;;;;;12.25;5.78;;;15.00;97.30;;;;;;5033712;28;20430;-63
2022/04/24 07:35:15;;;;;;;9.55;5.38;;;14.90;97.40;;;;;;5034868;28;20108;-64
2022/04/24 07:37:41;;;;;;;11.00;5.65;;;15.00;97.80;;;;;;5035031;28;20017;-64
2022/04/24 07:40:09;;;;;;;9.35;5.40;;;15.00;97.80;;;;;;5034901;28;20100;-63
2022/04/24 07:43:08;;;;;;;10.20;5.60;;;15.10;97.60;;;;;;5034358;28;20030;-63
2022/04/24 07:45:37;;;;;;;10.50;6.13;;;15.20;97.70;;;;;;5034073;28;20047;-63
2022/04/24 07:48:05;;;;;;;9.73;5.03;;;15.30;97.10;;;;;;5034430;28;20025;-62
2022/04/24 07:50:34;;;;;;;9.32;5.55;;;15.40;96.90;;;;;;5034665;28;20018;-63
2022/04/24 07:53:01;;;;;;;10.20;5.35;;;15.50;96.80;;;;;;5035049;28;20468;-64
2022/04/24 07:55:27;;;;;;;12.75;6.10;;;15.70;96.60;;;;;;5034660;28;20045;-63
2022/04/24 07:57:54;;;;;;;11.73;6.18;;;15.80;96.20;;;;;;5034305;28;20347;-63
2022/04/24 08:00:26;;;;;;;12.50;6.10;;;16.10;96.20;;;;;;5034356;28;20021;-63
2022/04/24 08:03:01;;;;;;;11.05;5.65;;;16.50;96.00;;;;;;5034584;28;20013;-63
2022/04/24 08:05:44;;;;;;;9.18;4.93;;;17.00;95.60;;;;;;5034356;28;20048;-63
2022/04/24 08:08:21;;;;;;;8.30;5.00;;;17.60;95.00;;;;;;5034161;28;20036;-63
2022/04/24 08:10:49;;;;;;;9.57;5.60;;;18.20;93.90;;;;;;5033581;28;20021;-63
2022/04/24 08:13:15;;;;;;;9.40;5.07;;;18.70;93.20;;;;;;5033739;28;20079;-63
2022/04/24 08:15:42;;;;;;;7.20;5.15;;;19.20;92.20;;;;;;5032780;28;20021;-63
2022/04/24 08:18:09;;;;;;;11.10;5.00;;;19.50;91.60;;;;;;5034022;28;20025;-62
2022/04/24 08:20:35;;;;;;;8.70;4.97;;;19.70;91.20;;;;;;5033906;28;20022;-62
2022/04/24 08:23:02;;;;;;;7.85;4.75;;;19.90;90.80;;;;;;5032657;28;20025;-64
2022/04/24 08:25:29;;;;;;;8.32;5.20;;;20.00;90.30;;;;;;5034162;28;20100;-64
2022/04/24 08:27:56;;;;;;;9.80;5.20;;;20.00;90.00;;;;;;5033932;28;20052;-63
2022/04/24 08:30:23;;;;;;;8.02;4.85;;;20.20;90.10;;;;;;5034016;28;20026;-63
2022/04/24 08:32:50;;;;;;;9.02;5.07;;;20.50;89.40;;;;;;5033753;28;20445;-63
2022/04/24 08:35:17;;;;;;;9.05;5.05;;;20.80;88.60;;;;;;5033361;28;20017;-64
2022/04/24 08:37:44;;;;;;;9.60;5.28;;;21.30;86.80;;;;;;5033116;28;20018;-62
2022/04/24 08:40:12;;;;;;;9.65;5.10;;;21.60;85.80;;;;;;5034294;28;20026;-63
2022/04/24 08:42:39;;;;;;;7.75;4.78;;;21.80;84.90;;;;;;5033383;28;20523;-63
2022/04/24 08:45:07;;;;;;;9.35;5.05;;;21.80;84.20;;;;;;5033737;28;20017;-63
2022/04/24 08:47:32;;;;;;;9.13;5.00;;;22.10;83.50;;;;;;5032015;28;20434;-64
2022/04/24 08:50:00;;;;;;;10.93;5.82;;;22.40;82.20;;;;;;5034024;28;20061;-63
2022/04/24 08:52:29;;;;;;;9.30;5.60;;;22.30;81.50;;;;;;5033301;28;20417;-63
2022/04/24 08:54:57;;;;;;;8.30;5.07;;;22.40;80.90;;;;;;5033218;28;20030;-63
2022/04/24 08:57:26;;;;;;;8.60;5.00;;;22.60;80.10;;;;;;5033764;28;20013;-63
2022/04/24 08:59:55;;;;;;;8.63;5.13;;;22.70;79.40;;;;;;5033622;28;20036;-64
2022/04/24 09:02:22;;;;;;;9.57;4.60;;;22.90;79.00;;;;;;5033375;28;20091;-64
2022/04/24 09:04:48;;;;;;;9.40;4.90;;;22.90;78.70;;;;;;5032689;28;20025;-64
2022/04/24 09:07:20;;;;;;;9.50;5.22;;;22.80;78.20;;;;;;5033293;28;20026;-64
2022/04/24 09:09:48;;;;;;;10.50;5.93;;;22.70;78.50;;;;;;5033363;28;20029;-64
2022/04/24 09:12:16;;;;;;;12.52;5.63;;;22.60;78.40;;;;;;5033068;28;20029;-63
2022/04/24 09:14:47;;;;;;;10.90;6.05;;;22.70;77.90;;;;;;5033144;28;20489;-63
2022/04/24 09:17:21;;;;;;;7.63;5.00;;;22.90;77.50;;;;;;5032994;28;20021;-63
2022/04/24 09:19:47;;;;;;;9.27;4.97;;;23.30;76.80;;;;;;5033474;28;20485;-63
2022/04/24 09:22:13;;;;;;;11.38;5.47;;;23.60;75.60;;;;;;5033394;28;20029;-65
2022/04/24 09:24:55;;;;;;;9.02;5.32;;;23.70;74.90;;;;;;5034380;28;20025;-64
2022/04/24 09:27:32;;;;;;;9.57;5.70;;;23.70;74.60;;;;;;5037132;28;20041;-63
2022/04/24 09:29:59;;;;;;;9.40;5.22;;;23.70;74.60;;;;;;5035624;28;20369;-63
2022/04/24 09:32:27;;;;;;;8.02;4.70;;;23.80;74.40;;;;;;5036879;28;20026;-63
2022/04/24 09:34:53;;;;;;;11.20;5.55;;;24.00;74.00;;;;;;5037050;28;20022;-63
2022/04/24 09:37:19;;;;;;;9.45;4.93;;;23.90;74.00;;;;;;5035660;28;20029;-64
2022/04/24 09:39:46;;;;;;;8.82;5.30;;;24.00;73.20;;;;;;5037019;28;20017;-64
2022/04/24 09:42:14;;;;;;;9.38;5.60;;;24.10;72.80;;;;;;5036620;28;20025;-64
2022/04/24 09:44:43;;;;;;;8.85;5.40;;;24.40;72.50;;;;;;5035478;28;20354;-63
2022/04/24 09:47:09;;;;;;;8.38;5.28;;;24.50;72.00;;;;;;5037467;28;20108;-63
2022/04/24 09:49:40;;;;;;;8.60;5.50;;;24.60;70.70;;;;;;5037050;28;20442;-63
2022/04/24 09:52:11;;;;;;;10.02;5.82;;;24.60;70.80;;;;;;5036956;28;20021;-64
2022/04/24 09:54:45;;;;;;;8.57;4.97;;;24.60;70.50;;;;;;5042271;28;20020;-64
2022/04/24 09:57:12;;;;;;;10.02;5.40;;;24.60;70.10;;;;;;5052837;28;20107;-63
2022/04/24 09:59:39;;;;;;;12.23;5.70;;;24.40;70.10;;;;;;5055466;28;20104;-64
2022/04/24 10:02:05;;;;;;;11.00;6.07;;;24.50;70.80;;;;;;5056482;28;20051;-63
2022/04/24 10:04:36;;;;;;;9.82;5.60;;;24.60;70.50;;;;;;5055155;28;20025;-63
2022/04/24 10:07:07;;;;;;;9.75;5.20;;;24.90;70.70;;;;;;5056480;28;20099;-65
2022/04/24 10:09:36;;;;;;;10.95;5.50;;;25.20;70.60;;;;;;5056269;28;20029;-64
2022/04/24 10:12:04;;;;;;;9.98;5.78;;;25.20;69.80;;;;;;5056232;28;20461;-65
2022/04/24 10:14:31;;;;;;;12.52;6.05;;;25.30;69.90;;;;;;5056533;28;20457;-66
2022/04/24 10:17:23;;;;;;;8.60;5.15;;;25.30;69.20;;;;;;5056488;28;20068;-66
2022/04/24 10:20:07;;;;;;;;;;;25.20;68.40;;;;;;5038582;28;20056;-66
2022/04/24 10:22:39;;;;;;;9.38;5.90;;;25.10;67.70;;;;;;5056419;28;20007;-66
2022/04/24 10:25:06;;;;;;;9.95;5.78;;;25.20;68.10;;;;;;5056271;28;20100;-64
2022/04/24 10:27:43;;;;;;;7.85;5.47;;;25.10;68.10;;;;;;5056191;28;20048;-63
2022/04/24 10:30:23;;;;;;;10.10;6.25;;;25.10;67.50;;;;;;5055707;28;20068;-64
2022/04/24 10:33:10;;;;;;;9.75;5.70;;;24.90;68.10;;;;;;5055634;28;20106;-65
2022/04/24 10:35:47;;;;;;;10.90;5.45;;;25.10;68.40;;;;;;5052339;28;20104;-65
2022/04/24 10:38:13;;;;;;;9.38;5.40;;;24.80;67.90;;;;;;5054533;28;20416;-65
2022/04/24 10:40:39;;;;;;;12.65;5.63;;;24.80;67.90;;;;;;5055386;28;20444;-66
2022/04/24 10:43:07;;;;;;;9.68;5.50;;;25.00;67.80;;;;;;5055499;28;20021;-62
2022/04/24 10:45:45;;;;;;;9.48;5.38;;;25.10;68.10;;;;;;5055901;28;20082;-68
2022/04/24 10:48:15;;;;;;;12.13;5.70;;;25.30;66.80;;;;;;5056033;28;20099;-65
2022/04/24 10:50:52;;;;;;;9.75;5.65;;;25.40;66.40;;;;;;5055748;28;20024;-62
2022/04/24 10:53:18;;;;;;;10.60;5.00;;;25.40;65.90;;;;;;5055498;28;20497;-64
2022/04/24 10:55:43;;;;;;;7.07;4.60;;;25.40;65.60;;;;;;5051091;28;20029;-64
2022/04/24 10:58:10;;;;;;;9.65;4.60;;;25.40;65.20;;;;;;5035730;28;20025;-67
2022/04/24 11:00:38;;;;;;;7.03;4.45;;;25.40;65.50;;;;;;5034967;28;20025;-65
2022/04/24 11:03:16;;;;;;;7.40;4.20;;;25.20;65.20;;;;;;5045504;28;20599;-64
2022/04/24 11:05:47;;;;;;;7.20;3.90;;;25.10;64.30;;;;;;5041445;28;20028;-66
2022/04/24 11:08:18;;;;;;;6.88;3.95;;;25.10;63.60;;;;;;5039970;28;20021;-63
2022/04/24 11:10:45;;;;;;;6.93;3.70;;;25.10;63.60;;;;;;5047803;28;20021;-64
2022/04/24 11:13:30;;;;;;;7.97;3.78;;;25.40;64.30;;;;;;5046363;28;20119;-63
2022/04/24 11:15:59;;;;;;;8.40;3.78;;;25.70;63.30;;;;;;5042113;28;20040;-63
2022/04/24 11:18:26;;;;;;;5.30;2.90;;;25.90;61.40;;;;;;5042854;28;20025;-63
2022/04/24 11:21:01;;;;;;;6.20;3.17;;;25.90;61.30;;;;;;5052189;28;20122;-64
2022/04/24 11:23:29;;;;;;;4.35;3.05;;;25.80;60.40;;;;;;5044529;28;20452;-63
2022/04/24 11:25:58;;;;;;;6.10;2.75;;;25.70;60.50;;;;;;5042770;28;20523;-64
2022/04/24 11:28:48;;;;;;;5.10;2.53;;;25.70;60.10;;;;;;5045835;28;20037;-64
2022/04/24 11:31:14;;;;;;;4.75;3.00;;;25.60;59.80;;;;;;5047767;28;20049;-63
2022/04/24 11:33:57;;;;;;;7.22;2.33;;;25.80;60.60;;;;;;5038714;28;20024;-66
2022/04/24 11:36:31;;;;;;;5.22;2.88;;;26.10;59.30;;;;;;5049043;28;20028;-63
2022/04/24 11:38:57;;;;;;;7.38;2.60;;;26.30;58.10;;;;;;5042108;28;20013;-63
2022/04/24 11:41:27;;;;;;;3.53;2.38;;;26.40;58.00;;;;;;5038597;28;20069;-63
2022/04/24 11:44:02;;;;;;;6.57;2.80;;;26.30;57.50;;;;;;5044527;28;20020;-64
2022/04/24 11:51:59;;;;;;;4.97;2.45;;;26.10;58.20;;;;;;5052237;28;20506;-63
2022/04/24 11:54:25;;;;;;;5.68;2.80;;;26.40;57.90;;;;;;5039196;28;20029;-64
2022/04/24 11:56:51;;;;;;;4.95;2.65;;;26.60;57.50;;;;;;5051746;28;20100;-64
2022/04/24 11:59:22;;;;;;;5.82;2.60;;;26.90;57.00;;;;;;5041135;28;20560;-63
2022/04/24 12:01:56;;;;;;;8.27;2.72;;;26.90;57.10;;;;;;5039544;28;20515;-67
2022/04/24 12:04:26;;;;;;;6.32;3.03;;;26.90;57.20;;;;;;5043826;28;20033;-67
2022/04/24 12:07:00;;;;;;;4.32;2.95;;;26.90;57.40;;;;;;5038005;28;20022;-63
2022/04/24 12:09:26;;;;;;;5.15;2.50;;;26.90;57.40;;;;;;5053824;28;20066;-66
2022/04/24 12:12:09;;;;;;;3.45;2.83;;;26.90;56.50;;;;;;5050184;28;20033;-67
2022/04/24 12:14:35;;;;;;;5.07;2.70;;;26.60;55.50;;;;;;5043568;28;20111;-64
2022/04/24 12:17:08;;;;;;;5.35;2.70;;;26.60;55.60;;;;;;5045401;28;20028;-65
2022/04/24 12:19:36;;;;;;;4.72;2.65;;;26.50;54.60;;;;;;5051251;28;20051;-64
2022/04/24 12:22:07;;;;;;;3.67;2.50;;;26.30;54.30;;;;;;5054146;28;20035;-67
2022/04/24 12:24:46;;;;;;;4.45;2.45;;;26.10;54.10;;;;;;5050273;28;20062;-64
2022/04/24 12:27:15;;;;;;;3.75;2.33;;;25.90;54.00;;;;;;5045257;28;20044;-63
2022/04/24 12:29:49;;;;;;;4.45;2.55;;;25.90;54.10;;;;;;5054490;28;20115;-64
2022/04/24 12:32:17;;;;;;;3.33;2.03;;;25.80;54.80;;;;;;5037657;28;20023;-64
2022/04/24 12:34:45;;;;;;;4.63;2.58;;;25.70;54.40;;;;;;5039623;28;20074;-66
2022/04/24 12:37:12;;;;;;;4.07;2.33;;;25.60;54.30;;;;;;5037171;28;20029;-65
2022/04/24 12:39:37;;;;;;;3.63;2.28;;;25.50;54.10;;;;;;5033806;28;20155;-63
2022/04/24 12:42:16;;;;;;;3.40;2.10;;;25.10;54.60;;;;;;5042299;28;20116;-62
2022/04/24 12:44:42;;;;;;;5.30;2.15;;;24.50;55.50;;;;;;5044641;28;20110;-66
2022/04/24 12:47:08;;;;;;;4.47;2.22;;;24.20;55.00;;;;;;5049376;28;20087;-64
2022/04/24 12:49:33;;;;;;;4.13;2.47;;;23.80;55.50;;;;;;5039167;28;20037;-62